createdAt,value
2018-11-25T00:00:24.708Z,55.87
2018-11-25T00:01:26.519Z,56.34
2018-11-25T00:02:28.283Z,56.78
2018-11-25T00:03:30.047Z,56.14
2018-11-25T00:04:31.827Z,56.60
2018-11-25T00:05:33.588Z,56.23
2018-11-25T00:06:35.388Z,56.09
2018-11-25T00:07:38.189Z,56.23
2018-11-25T00:08:39.947Z,56.48
2018-11-25T00:09:41.720Z,55.96
2018-11-25T00:10:43.507Z,56.45
2018-11-25T00:11:45.303Z,56.27
2018-11-25T00:12:47.069Z,56.27
2018-11-25T00:13:48.860Z,56.67
2018-11-25T00:14:50.626Z,56.38
2018-11-25T00:15:52.401Z,56.00
2018-11-25T00:16:54.185Z,56.65
2018-11-25T00:17:55.951Z,56.26
2018-11-25T00:18:58.105Z,56.01
2018-11-25T00:19:59.881Z,55.96
2018-11-25T00:21:01.653Z,56.45
2018-11-25T00:22:03.460Z,56.45
2018-11-25T00:23:05.246Z,56.45
2018-11-25T00:24:07.074Z,56.11
2018-11-25T00:25:08.844Z,56.36
2018-11-25T00:26:10.643Z,55.92
2018-11-25T00:27:12.442Z,56.43
2018-11-25T00:28:15.242Z,56.26
2018-11-25T00:29:17.025Z,55.89
2018-11-25T00:30:25.449Z,55.94
2018-11-25T00:31:27.224Z,55.81
2018-11-25T00:32:29.024Z,55.89
2018-11-25T00:33:32.092Z,55.96
2018-11-25T00:34:33.875Z,55.80
2018-11-25T00:35:35.641Z,56.22
2018-11-25T00:36:38.284Z,56.49
2018-11-25T00:37:43.338Z,56.44
2018-11-25T00:38:41.882Z,55.96
2018-11-25T00:39:43.705Z,56.03
2018-11-25T00:40:45.476Z,56.26
2018-11-25T00:41:47.292Z,55.66
2018-11-25T00:42:49.109Z,55.88
2018-11-25T00:43:50.899Z,56.03
2018-11-25T00:44:52.732Z,56.02
2018-11-25T00:45:54.662Z,56.43
2018-11-25T00:46:56.440Z,55.74
2018-11-25T00:47:58.711Z,55.72
2018-11-25T00:49:01.738Z,55.73
2018-11-25T00:50:04.505Z,56.19
2018-11-25T00:51:07.658Z,56.04
2018-11-25T00:52:10.614Z,55.97
2018-11-25T00:53:13.647Z,56.05
2018-11-25T00:54:16.576Z,55.57
2018-11-25T00:55:19.495Z,56.16
2018-11-25T00:56:22.451Z,55.71
2018-11-25T00:57:25.352Z,56.41
2018-11-25T00:58:28.678Z,56.33
2018-11-25T00:59:31.707Z,55.98
2018-11-25T01:00:34.687Z,55.99
2018-11-25T01:01:41.886Z,56.00
2018-11-25T01:02:49.471Z,56.14
2018-11-25T01:03:51.632Z,56.22
2018-11-25T01:04:53.397Z,56.06
2018-11-25T01:05:55.163Z,56.07
2018-11-25T01:06:57.048Z,55.68
2018-11-25T01:07:58.844Z,55.83
2018-11-25T01:09:00.633Z,55.65
2018-11-25T01:10:02.417Z,55.84
2018-11-25T01:11:04.260Z,56.36
2018-11-25T01:12:07.066Z,55.95
2018-11-25T01:13:08.874Z,55.77
2018-11-25T01:14:10.721Z,55.94
2018-11-25T01:15:12.519Z,55.61
2018-11-25T01:16:14.291Z,56.11
2018-11-25T01:17:16.049Z,56.15
2018-11-25T01:18:17.803Z,55.59
2018-11-25T01:19:20.460Z,55.61
2018-11-25T01:20:22.232Z,55.83
2018-11-25T01:21:24.005Z,56.04
2018-11-25T01:22:25.804Z,56.33
2018-11-25T01:23:27.579Z,55.79
2018-11-25T01:24:29.363Z,55.57
2018-11-25T01:25:31.136Z,55.98
2018-11-25T01:26:32.885Z,55.98
2018-11-25T01:27:34.637Z,56.11
2018-11-25T01:28:36.397Z,56.20
2018-11-25T01:29:38.307Z,55.92
2018-11-25T01:30:40.078Z,55.48
2018-11-25T01:31:41.839Z,55.67
2018-11-25T01:32:43.610Z,56.18
2018-11-25T01:33:45.363Z,55.77
2018-11-25T01:34:47.147Z,56.20
2018-11-25T01:35:48.919Z,55.94
2018-11-25T01:36:50.665Z,55.83
2018-11-25T01:37:52.424Z,56.02
2018-11-25T01:38:54.191Z,56.00
2018-11-25T01:39:56.010Z,55.84
2018-11-25T01:40:57.806Z,55.44
2018-11-25T01:41:59.571Z,55.79
2018-11-25T01:43:01.344Z,55.37
2018-11-25T01:44:03.115Z,55.50
2018-11-25T01:45:04.903Z,55.69
2018-11-25T01:46:06.659Z,55.34
2018-11-25T01:47:08.427Z,55.45
2018-11-25T01:48:10.218Z,55.69
2018-11-25T01:49:11.964Z,56.22
2018-11-25T01:50:13.765Z,55.43
2018-11-25T01:51:15.535Z,55.40
2018-11-25T01:52:17.299Z,55.81
2018-11-25T01:53:20.264Z,56.06
2018-11-25T01:54:22.020Z,55.86
2018-11-25T01:55:23.799Z,55.43
2018-11-25T01:56:25.577Z,55.60
2018-11-25T01:57:27.383Z,55.79
2018-11-25T01:58:29.167Z,55.97
2018-11-25T01:59:30.921Z,55.84
2018-11-25T02:00:32.712Z,55.37
2018-11-25T02:01:34.468Z,55.35
2018-11-25T02:02:36.216Z,55.63
2018-11-25T02:03:38.334Z,55.85
2018-11-25T02:04:40.113Z,55.59
2018-11-25T02:05:41.896Z,55.89
2018-11-25T02:06:44.058Z,55.67
2018-11-25T02:07:45.821Z,55.83
2018-11-25T02:08:47.618Z,55.51
2018-11-25T02:09:49.416Z,55.68
2018-11-25T02:10:51.208Z,55.37
2018-11-25T02:11:52.988Z,55.71
2018-11-25T02:12:54.779Z,55.54
2018-11-25T02:13:56.556Z,55.28
2018-11-25T02:14:58.303Z,55.88
2018-11-25T02:16:00.084Z,55.35
2018-11-25T02:17:01.830Z,55.42
2018-11-25T02:18:03.613Z,55.68
2018-11-25T02:19:05.397Z,55.42
2018-11-25T02:20:07.179Z,55.49
2018-11-25T02:21:10.203Z,55.68
2018-11-25T02:22:13.696Z,55.73
2018-11-25T02:23:15.479Z,56.02
2018-11-25T02:24:17.300Z,55.32
2018-11-25T02:25:19.139Z,55.91
2018-11-25T02:26:20.936Z,55.60
2018-11-25T02:27:22.692Z,55.38
2018-11-25T02:28:24.473Z,55.37
2018-11-25T02:29:26.226Z,55.49
2018-11-25T02:30:27.989Z,55.86
2018-11-25T02:31:29.764Z,55.26
2018-11-25T02:32:31.510Z,55.48
2018-11-25T02:33:33.273Z,55.76
2018-11-25T02:34:35.028Z,55.09
2018-11-25T02:35:36.784Z,55.46
2018-11-25T02:36:38.553Z,55.29
2018-11-25T02:37:40.354Z,55.31
2018-11-25T02:38:42.142Z,55.53
2018-11-25T02:39:43.903Z,55.26
2018-11-25T02:40:45.672Z,55.62
2018-11-25T02:41:47.465Z,55.19
2018-11-25T02:42:49.210Z,55.16
2018-11-25T02:43:50.984Z,55.39
2018-11-25T02:44:52.737Z,55.00
2018-11-25T02:45:54.488Z,55.85
2018-11-25T02:46:56.259Z,55.52
2018-11-25T02:47:58.832Z,55.39
2018-11-25T02:49:00.598Z,55.59
2018-11-25T02:50:02.354Z,55.16
2018-11-25T02:51:04.095Z,55.19
2018-11-25T02:52:05.882Z,54.83
2018-11-25T02:53:07.628Z,55.77
2018-11-25T02:54:09.772Z,55.52
2018-11-25T02:55:11.528Z,55.71
2018-11-25T02:56:13.559Z,55.17
2018-11-25T02:57:19.590Z,55.50
2018-11-25T02:58:21.346Z,55.57
2018-11-25T02:59:23.090Z,55.56
2018-11-25T03:00:24.841Z,54.76
2018-11-25T03:01:26.600Z,55.59
2018-11-25T03:02:28.388Z,55.42
2018-11-25T03:03:30.142Z,55.24
2018-11-25T03:04:31.906Z,55.71
2018-11-25T03:05:33.666Z,55.58
2018-11-25T03:06:35.410Z,55.33
2018-11-25T03:07:37.179Z,55.13
2018-11-25T03:08:38.945Z,54.97
2018-11-25T03:09:40.706Z,55.75
2018-11-25T03:10:42.480Z,55.54
2018-11-25T03:11:44.238Z,55.23
2018-11-25T03:12:46.026Z,55.26
2018-11-25T03:13:47.789Z,54.91
2018-11-25T03:14:49.552Z,55.48
2018-11-25T03:15:51.794Z,55.43
2018-11-25T03:16:53.560Z,54.85
2018-11-25T03:17:55.343Z,55.62
2018-11-25T03:18:58.874Z,54.62
2018-11-25T03:20:00.945Z,55.43
2018-11-25T03:21:02.716Z,55.15
2018-11-25T03:22:04.487Z,55.21
2018-11-25T03:23:06.259Z,55.24
2018-11-25T03:24:08.011Z,55.69
2018-11-25T03:25:09.773Z,54.96
2018-11-25T03:26:11.529Z,55.27
2018-11-25T03:27:13.331Z,54.91
2018-11-25T03:28:15.113Z,55.10
2018-11-25T03:29:18.251Z,55.27
2018-11-25T03:30:20.030Z,55.35
2018-11-25T03:31:21.785Z,55.40
2018-11-25T03:32:23.558Z,55.30
2018-11-25T03:33:25.342Z,55.00
2018-11-25T03:34:27.100Z,55.07
2018-11-25T03:35:28.853Z,55.12
2018-11-25T03:36:30.598Z,55.04
2018-11-25T03:37:32.355Z,55.26
2018-11-25T03:38:34.157Z,55.47
2018-11-25T03:39:36.011Z,55.62
2018-11-25T03:40:37.775Z,55.24
2018-11-25T03:41:39.531Z,55.56
2018-11-25T03:42:41.314Z,55.25
2018-11-25T03:43:43.111Z,55.25
2018-11-25T03:44:44.867Z,54.82
2018-11-25T03:45:48.348Z,55.05
2018-11-25T03:46:50.118Z,55.13
2018-11-25T03:47:51.867Z,54.99
2018-11-25T03:48:53.656Z,55.45
2018-11-25T03:49:55.409Z,55.11
2018-11-25T03:50:58.322Z,55.22
2018-11-25T03:52:00.077Z,55.06
2018-11-25T03:53:01.828Z,55.13
2018-11-25T03:54:03.615Z,54.89
2018-11-25T03:55:05.371Z,54.90
2018-11-25T03:56:07.123Z,55.08
2018-11-25T03:57:08.879Z,55.21
2018-11-25T03:58:10.627Z,54.78
2018-11-25T03:59:12.407Z,55.41
2018-11-25T04:00:14.162Z,54.71
2018-11-25T04:01:15.916Z,54.67
2018-11-25T04:02:17.673Z,54.74
2018-11-25T04:03:19.441Z,54.86
2018-11-25T04:04:21.229Z,54.99
2018-11-25T04:05:22.972Z,54.70
2018-11-25T04:06:24.723Z,55.21
2018-11-25T04:07:26.480Z,55.12
2018-11-25T04:08:28.253Z,54.91
2018-11-25T04:09:30.032Z,55.24
2018-11-25T04:10:31.795Z,54.60
2018-11-25T04:11:33.559Z,55.02
2018-11-25T04:12:35.323Z,55.03
2018-11-25T04:13:37.073Z,54.67
2018-11-25T04:14:38.829Z,55.09
2018-11-25T04:15:40.581Z,54.91
2018-11-25T04:16:42.338Z,54.81
2018-11-25T04:17:44.109Z,55.18
2018-11-25T04:18:45.877Z,55.08
2018-11-25T04:19:47.647Z,55.07
2018-11-25T04:20:49.405Z,55.01
2018-11-25T04:21:51.164Z,54.85
2018-11-25T04:22:52.919Z,55.07
2018-11-25T04:23:54.686Z,54.83
2018-11-25T04:24:56.472Z,55.09
2018-11-25T04:25:58.225Z,54.93
2018-11-25T04:27:01.212Z,54.49
2018-11-25T04:28:03.025Z,54.80
2018-11-25T04:29:05.701Z,55.00
2018-11-25T04:30:07.498Z,55.18
2018-11-25T04:31:09.308Z,55.19
2018-11-25T04:32:11.052Z,55.04
2018-11-25T04:33:13.969Z,55.25
2018-11-25T04:34:15.736Z,55.30
2018-11-25T04:35:17.523Z,54.43
2018-11-25T04:36:19.335Z,54.59
2018-11-25T04:37:21.157Z,54.64
2018-11-25T04:38:22.911Z,54.76
2018-11-25T04:39:24.681Z,54.84
2018-11-25T04:40:26.463Z,54.62
2018-11-25T04:41:28.215Z,54.96
2018-11-25T04:42:29.965Z,54.51
2018-11-25T04:43:31.715Z,55.31
2018-11-25T04:44:33.482Z,54.52
2018-11-25T04:45:35.248Z,54.84
2018-11-25T04:46:37.011Z,54.59
2018-11-25T04:47:38.778Z,54.82
2018-11-25T04:48:40.536Z,54.62
2018-11-25T04:49:42.288Z,55.26
2018-11-25T04:50:44.076Z,54.23
2018-11-25T04:51:45.833Z,54.42
2018-11-25T04:52:48.042Z,54.71
2018-11-25T04:53:49.789Z,54.70
2018-11-25T04:54:51.548Z,54.72
2018-11-25T04:55:53.329Z,55.07
2018-11-25T04:56:55.080Z,54.52
2018-11-25T04:57:56.843Z,54.44
2018-11-25T04:58:58.619Z,54.49
2018-11-25T05:00:00.398Z,54.52
2018-11-25T05:01:02.179Z,54.68
2018-11-25T05:02:03.963Z,54.67
2018-11-25T05:03:05.739Z,54.77
2018-11-25T05:04:07.502Z,54.80
2018-11-25T05:05:09.250Z,54.71
2018-11-25T05:06:11.029Z,54.58
2018-11-25T05:07:12.777Z,54.48
2018-11-25T05:08:14.558Z,55.10
2018-11-25T05:09:16.319Z,55.18
2018-11-25T05:10:18.069Z,54.69
2018-11-25T05:11:19.842Z,54.99
2018-11-25T05:12:21.603Z,54.85
2018-11-25T05:13:23.360Z,54.50
2018-11-25T05:14:25.116Z,54.98
2018-11-25T05:15:26.899Z,54.82
2018-11-25T05:16:28.681Z,54.97
2018-11-25T05:17:30.451Z,55.10
2018-11-25T05:18:32.203Z,55.03
2018-11-25T05:19:33.969Z,54.30
2018-11-25T05:20:35.728Z,54.78
2018-11-25T05:21:37.508Z,54.67
2018-11-25T05:22:41.033Z,54.59
2018-11-25T05:23:42.791Z,55.02
2018-11-25T05:24:44.551Z,54.74
2018-11-25T05:25:47.716Z,55.24
2018-11-25T05:26:49.498Z,54.82
2018-11-25T05:27:51.843Z,54.78
2018-11-25T05:28:53.583Z,54.84
2018-11-25T05:29:55.368Z,54.43
2018-11-25T05:30:57.139Z,54.66
2018-11-25T05:31:58.926Z,54.71
2018-11-25T05:33:02.136Z,55.01
2018-11-25T05:34:03.915Z,54.85
2018-11-25T05:35:05.676Z,54.80
2018-11-25T05:36:07.457Z,54.81
2018-11-25T05:37:09.228Z,54.96
2018-11-25T05:38:10.993Z,54.87
2018-11-25T05:39:12.756Z,54.83
2018-11-25T05:40:14.518Z,54.90
2018-11-25T05:41:16.279Z,54.79
2018-11-25T05:42:18.061Z,54.89
2018-11-25T05:43:19.832Z,54.36
2018-11-25T05:44:21.594Z,54.32
2018-11-25T05:45:24.785Z,54.73
2018-11-25T05:46:26.549Z,54.64
2018-11-25T05:47:28.750Z,54.95
2018-11-25T05:48:30.510Z,54.62
2018-11-25T05:49:36.817Z,54.25
2018-11-25T05:50:34.082Z,54.69
2018-11-25T05:51:35.839Z,54.71
2018-11-25T05:52:37.650Z,54.97
2018-11-25T05:53:39.399Z,54.32
2018-11-25T05:54:41.147Z,54.88
2018-11-25T05:55:42.908Z,54.70
2018-11-25T05:56:44.660Z,54.52
2018-11-25T05:57:46.449Z,54.89
2018-11-25T05:58:48.296Z,54.32
2018-11-25T05:59:50.049Z,54.69
2018-11-25T06:00:51.816Z,54.33
2018-11-25T06:01:53.646Z,54.63
2018-11-25T06:02:55.430Z,54.31
2018-11-25T06:03:57.186Z,54.54
2018-11-25T06:04:58.951Z,54.59
2018-11-25T06:06:00.696Z,54.65
2018-11-25T06:07:02.477Z,54.79
2018-11-25T06:08:04.268Z,54.55
2018-11-25T06:09:06.029Z,54.43
2018-11-25T06:10:07.786Z,54.52
2018-11-25T06:11:09.545Z,54.58
2018-11-25T06:12:12.794Z,54.84
2018-11-25T06:13:15.724Z,54.59
2018-11-25T06:14:17.481Z,54.31
2018-11-25T06:15:19.248Z,54.57
2018-11-25T06:16:21.010Z,54.62
2018-11-25T06:17:22.778Z,54.66
2018-11-25T06:18:24.548Z,54.60
2018-11-25T06:19:26.299Z,54.91
2018-11-25T06:20:28.064Z,54.45
2018-11-25T06:21:29.838Z,54.71
2018-11-25T06:22:31.617Z,54.44
2018-11-25T06:23:33.414Z,54.67
2018-11-25T06:24:35.671Z,54.87
2018-11-25T06:25:37.427Z,54.39
2018-11-25T06:26:39.185Z,54.44
2018-11-25T06:27:40.952Z,54.70
2018-11-25T06:28:42.744Z,54.43
2018-11-25T06:29:44.504Z,54.56
2018-11-25T06:30:46.292Z,54.12
2018-11-25T06:31:48.056Z,54.86
2018-11-25T06:32:49.816Z,54.01
2018-11-25T06:33:52.226Z,54.31
2018-11-25T06:34:54.006Z,54.79
2018-11-25T06:35:55.765Z,54.14
2018-11-25T06:36:57.520Z,54.35
2018-11-25T06:37:59.324Z,54.33
2018-11-25T06:39:01.850Z,54.55
2018-11-25T06:40:03.615Z,54.36
2018-11-25T06:41:05.375Z,54.43
2018-11-25T06:42:07.138Z,54.81
2018-11-25T06:43:08.901Z,54.10
2018-11-25T06:44:10.710Z,54.37
2018-11-25T06:45:12.463Z,54.20
2018-11-25T06:46:14.233Z,54.09
2018-11-25T06:47:16.011Z,54.43
2018-11-25T06:48:17.781Z,54.42
2018-11-25T06:49:19.565Z,54.27
2018-11-25T06:50:21.320Z,54.16
2018-11-25T06:51:24.460Z,54.34
2018-11-25T06:52:26.209Z,54.34
2018-11-25T06:53:27.962Z,54.29
2018-11-25T06:54:30.972Z,54.06
2018-11-25T06:55:32.765Z,54.20
2018-11-25T06:56:34.522Z,54.66
2018-11-25T06:57:36.282Z,53.89
2018-11-25T06:58:38.046Z,54.32
2018-11-25T06:59:39.826Z,54.15
2018-11-25T07:00:42.951Z,54.05
2018-11-25T07:01:44.725Z,54.63
2018-11-25T07:02:46.467Z,54.75
2018-11-25T07:03:48.223Z,54.16
2018-11-25T07:04:50.021Z,54.41
2018-11-25T07:05:51.786Z,54.26
2018-11-25T07:06:53.559Z,54.23
2018-11-25T07:07:55.331Z,54.05
2018-11-25T07:08:57.151Z,54.45
2018-11-25T07:09:58.927Z,54.39
2018-11-25T07:11:00.683Z,53.90
2018-11-25T07:12:02.455Z,54.38
2018-11-25T07:13:04.217Z,54.11
2018-11-25T07:14:05.979Z,54.06
2018-11-25T07:15:07.773Z,54.42
2018-11-25T07:16:09.551Z,54.56
2018-11-25T07:17:11.325Z,54.03
2018-11-25T07:18:13.092Z,54.59
2018-11-25T07:19:14.862Z,54.37
2018-11-25T07:20:16.649Z,54.16
2018-11-25T07:21:18.420Z,54.34
2018-11-25T07:22:20.184Z,54.32
2018-11-25T07:23:23.105Z,54.38
2018-11-25T07:24:24.935Z,54.66
2018-11-25T07:25:26.724Z,54.62
2018-11-25T07:26:28.475Z,53.91
2018-11-25T07:27:30.223Z,54.36
2018-11-25T07:28:32.001Z,54.05
2018-11-25T07:29:33.755Z,54.01
2018-11-25T07:30:35.555Z,54.52
2018-11-25T07:31:37.319Z,54.30
2018-11-25T07:32:39.093Z,54.82
2018-11-25T07:33:40.885Z,53.95
2018-11-25T07:34:43.177Z,54.13
2018-11-25T07:35:44.964Z,53.85
2018-11-25T07:36:46.721Z,53.83
2018-11-25T07:37:48.485Z,54.21
2018-11-25T07:38:50.252Z,54.32
2018-11-25T07:39:52.023Z,54.06
2018-11-25T07:40:53.804Z,54.00
2018-11-25T07:41:55.569Z,54.41
2018-11-25T07:42:57.339Z,54.26
2018-11-25T07:43:59.118Z,54.04
2018-11-25T07:45:02.141Z,54.65
2018-11-25T07:46:03.936Z,54.24
2018-11-25T07:47:05.702Z,54.57
2018-11-25T07:48:07.468Z,54.21
2018-11-25T07:49:09.235Z,54.45
2018-11-25T07:50:10.999Z,54.14
2018-11-25T07:51:12.787Z,54.17
2018-11-25T07:52:14.548Z,54.41
2018-11-25T07:53:17.287Z,54.32
2018-11-25T07:54:19.080Z,53.81
2018-11-25T07:55:21.926Z,54.58
2018-11-25T07:56:23.743Z,53.84
2018-11-25T07:57:25.493Z,54.34
2018-11-25T07:58:27.252Z,54.54
2018-11-25T07:59:29.021Z,53.89
2018-11-25T08:00:30.801Z,53.85
2018-11-25T08:01:32.597Z,54.11
2018-11-25T08:02:41.175Z,54.07
2018-11-25T08:03:36.177Z,54.14
2018-11-25T08:04:37.959Z,54.56
2018-11-25T08:05:39.708Z,54.23
2018-11-25T08:06:41.497Z,54.04
2018-11-25T08:07:43.279Z,54.44
2018-11-25T08:08:46.248Z,54.60
2018-11-25T08:09:48.032Z,54.10
2018-11-25T08:10:52.508Z,54.33
2018-11-25T08:11:54.360Z,54.10
2018-11-25T08:12:56.577Z,53.91
2018-11-25T08:13:57.937Z,53.97
2018-11-25T08:14:59.718Z,54.37
2018-11-25T08:16:01.485Z,54.57
2018-11-25T08:17:03.296Z,54.30
2018-11-25T08:18:06.532Z,54.24
2018-11-25T08:19:08.304Z,54.28
2018-11-25T08:20:10.052Z,54.05
2018-11-25T08:21:11.819Z,54.26
2018-11-25T08:22:13.618Z,54.12
2018-11-25T08:23:15.674Z,54.36
2018-11-25T08:24:17.209Z,54.02
2018-11-25T08:25:18.999Z,54.01
2018-11-25T08:26:20.770Z,54.44
2018-11-25T08:27:22.558Z,54.30
2018-11-25T08:28:24.318Z,53.81
2018-11-25T08:29:26.081Z,54.22
2018-11-25T08:30:27.881Z,54.17
2018-11-25T08:31:29.664Z,54.20
2018-11-25T08:32:31.476Z,54.18
2018-11-25T08:33:33.237Z,54.59
2018-11-25T08:34:35.012Z,54.47
2018-11-25T08:35:36.772Z,53.62
2018-11-25T08:36:38.628Z,53.32
2018-11-25T08:37:40.389Z,53.59
2018-11-25T08:38:42.154Z,53.79
2018-11-25T08:39:43.925Z,53.34
2018-11-25T08:40:46.091Z,53.53
2018-11-25T08:41:47.878Z,53.48
2018-11-25T08:42:49.677Z,53.84
2018-11-25T08:43:51.437Z,53.43
2018-11-25T08:44:54.105Z,53.34
2018-11-25T08:45:55.849Z,53.97
2018-11-25T08:46:57.613Z,54.84
2018-11-25T08:47:59.414Z,54.04
2018-11-25T08:49:01.190Z,53.59
2018-11-25T08:50:02.952Z,54.57
2018-11-25T08:51:04.724Z,54.38
2018-11-25T08:52:06.498Z,54.54
2018-11-25T08:53:08.310Z,54.45
2018-11-25T08:54:10.088Z,54.60
2018-11-25T08:55:11.860Z,54.56
2018-11-25T08:56:13.626Z,54.55
2018-11-25T08:57:15.402Z,54.94
2018-11-25T08:58:19.126Z,54.91
2018-11-25T08:59:20.898Z,54.53
2018-11-25T09:00:22.670Z,55.09
2018-11-25T09:01:24.445Z,54.48
2018-11-25T09:02:26.214Z,54.59
2018-11-25T09:03:28.018Z,54.18
2018-11-25T09:04:29.779Z,54.64
2018-11-25T09:05:38.159Z,55.05
2018-11-25T09:06:39.954Z,54.59
2018-11-25T09:07:41.738Z,54.96
2018-11-25T09:08:43.528Z,54.17
2018-11-25T09:09:45.351Z,54.02
2018-11-25T09:10:47.144Z,54.85
2018-11-25T09:11:48.921Z,54.38
2018-11-25T09:12:55.744Z,53.93
2018-11-25T09:13:52.518Z,54.32
2018-11-25T09:14:54.280Z,54.64
2018-11-25T09:15:56.051Z,54.66
2018-11-25T09:16:57.817Z,54.48
2018-11-25T09:17:59.574Z,54.87
2018-11-25T09:19:01.400Z,54.36
2018-11-25T09:20:03.167Z,53.92
2018-11-25T09:21:04.936Z,54.54
2018-11-25T09:22:06.734Z,54.55
2018-11-25T09:23:08.507Z,54.30
2018-11-25T09:24:10.300Z,54.51
2018-11-25T09:25:12.083Z,54.37
2018-11-25T09:26:13.850Z,53.91
2018-11-25T09:27:15.628Z,54.13
2018-11-25T09:28:17.417Z,54.05
2018-11-25T09:29:19.222Z,54.38
2018-11-25T09:30:21.001Z,54.75
2018-11-25T09:31:22.798Z,54.70
2018-11-25T09:32:24.569Z,54.33
2018-11-25T09:33:26.317Z,54.23
2018-11-25T09:34:28.148Z,54.74
2018-11-25T09:35:29.917Z,55.06
2018-11-25T09:36:31.691Z,54.97
2018-11-25T09:37:33.748Z,54.74
2018-11-25T09:38:35.527Z,54.54
2018-11-25T09:39:37.311Z,54.50
2018-11-25T09:40:39.103Z,54.38
2018-11-25T09:41:40.873Z,54.71
2018-11-25T09:42:42.630Z,54.58
2018-11-25T09:43:44.563Z,55.54
2018-11-25T09:44:46.370Z,54.64
2018-11-25T09:45:48.163Z,54.70
2018-11-25T09:46:49.970Z,54.29
2018-11-25T09:47:51.721Z,54.73
2018-11-25T09:48:53.483Z,54.72
2018-11-25T09:49:55.666Z,54.62
2018-11-25T09:50:57.446Z,54.13
2018-11-25T09:51:59.208Z,54.51
2018-11-25T09:53:00.993Z,54.28
2018-11-25T09:54:02.750Z,54.82
2018-11-25T09:55:04.533Z,54.90
2018-11-25T09:56:06.285Z,54.54
2018-11-25T09:57:08.211Z,54.63
2018-11-25T09:58:09.972Z,54.35
2018-11-25T09:59:11.730Z,55.07
2018-11-25T10:00:13.520Z,54.48
2018-11-25T10:01:15.297Z,54.48
2018-11-25T10:02:17.076Z,54.66
2018-11-25T10:03:18.855Z,54.78
2018-11-25T10:04:20.615Z,54.76
2018-11-25T10:05:22.416Z,54.72
2018-11-25T10:06:24.195Z,55.39
2018-11-25T10:07:25.970Z,54.77
2018-11-25T10:08:27.725Z,54.63
2018-11-25T10:09:29.487Z,54.42
2018-11-25T10:10:31.291Z,54.80
2018-11-25T10:11:33.065Z,54.87
2018-11-25T10:12:34.846Z,54.87
2018-11-25T10:13:36.617Z,54.44
2018-11-25T10:14:38.386Z,54.47
2018-11-25T10:15:40.732Z,54.50
2018-11-25T10:16:42.860Z,54.59
2018-11-25T10:17:44.634Z,54.98
2018-11-25T10:18:46.402Z,54.49
2018-11-25T10:19:48.178Z,54.44
2018-11-25T10:20:49.981Z,54.15
2018-11-25T10:21:51.770Z,54.19
2018-11-25T10:22:53.566Z,54.36
2018-11-25T10:23:55.347Z,54.49
2018-11-25T10:24:57.112Z,54.14
2018-11-25T10:25:58.922Z,54.31
2018-11-25T10:27:00.706Z,53.70
2018-11-25T10:28:02.473Z,54.29
2018-11-25T10:29:04.236Z,53.78
2018-11-25T10:30:06.002Z,54.05
2018-11-25T10:31:07.798Z,54.20
2018-11-25T10:32:10.242Z,53.83
2018-11-25T10:33:12.017Z,54.02
2018-11-25T10:34:13.789Z,53.79
2018-11-25T10:35:15.580Z,54.14
2018-11-25T10:36:20.138Z,53.92
2018-11-25T10:37:21.917Z,53.23
2018-11-25T10:38:23.685Z,53.66
2018-11-25T10:39:25.451Z,53.66
2018-11-25T10:40:27.224Z,53.74
2018-11-25T10:41:29.026Z,53.68
2018-11-25T10:42:31.027Z,53.75
2018-11-25T10:43:33.658Z,53.59
2018-11-25T10:44:35.417Z,53.93
2018-11-25T10:45:37.204Z,53.95
2018-11-25T10:46:39.021Z,53.42
2018-11-25T10:47:40.778Z,53.38
2018-11-25T10:48:42.537Z,53.47
2018-11-25T10:49:44.551Z,53.74
2018-11-25T10:50:51.059Z,53.17
2018-11-25T10:51:48.560Z,53.60
2018-11-25T10:52:50.364Z,53.52
2018-11-25T10:53:52.128Z,53.54
2018-11-25T10:54:53.895Z,53.39
2018-11-25T10:55:55.659Z,53.28
2018-11-25T10:56:57.444Z,53.49
2018-11-25T10:58:00.271Z,53.59
2018-11-25T10:59:02.048Z,53.83
2018-11-25T11:00:03.983Z,54.20
2018-11-25T11:01:11.161Z,53.43
2018-11-25T11:02:19.483Z,53.13
2018-11-25T11:03:26.873Z,53.46
2018-11-25T11:04:34.152Z,53.07
2018-11-25T11:05:41.417Z,53.79
2018-11-25T11:07:49.734Z,52.97
2018-11-25T11:08:51.505Z,53.29
2018-11-25T11:09:54.079Z,52.75
2018-11-25T11:10:55.849Z,53.21
2018-11-25T11:11:57.609Z,53.09
2018-11-25T11:12:59.411Z,52.99
2018-11-25T11:14:01.194Z,53.46
2018-11-25T11:15:02.963Z,53.14
2018-11-25T11:16:04.718Z,52.84
2018-11-25T11:17:06.492Z,53.20
2018-11-25T11:18:09.103Z,53.18
2018-11-25T11:19:10.878Z,53.20
2018-11-25T11:20:12.668Z,53.69
2018-11-25T11:21:15.335Z,53.52
2018-11-25T11:22:17.785Z,53.47
2018-11-25T11:23:19.556Z,53.06
2018-11-25T11:24:21.335Z,53.31
2018-11-25T11:25:23.116Z,52.52
2018-11-25T11:26:24.902Z,53.04
2018-11-25T11:27:26.662Z,53.18
2018-11-25T11:28:28.449Z,53.15
2018-11-25T11:29:30.228Z,52.99
2018-11-25T11:30:32.004Z,53.10
2018-11-25T11:31:33.769Z,52.94
2018-11-25T11:32:35.538Z,53.14
2018-11-25T11:33:37.364Z,53.33
2018-11-25T11:34:39.130Z,53.49
2018-11-25T11:35:40.937Z,54.01
2018-11-25T11:36:42.784Z,53.62
2018-11-25T11:37:44.551Z,53.64
2018-11-25T11:38:46.345Z,53.41
2018-11-25T11:39:48.344Z,53.82
2018-11-25T11:40:50.114Z,54.13
2018-11-25T11:41:51.893Z,53.94
2018-11-25T11:42:53.660Z,53.72
2018-11-25T11:43:55.438Z,54.26
2018-11-25T11:44:57.249Z,54.03
2018-11-25T11:45:59.023Z,52.80
2018-11-25T11:47:01.332Z,53.66
2018-11-25T11:48:03.104Z,54.77
2018-11-25T11:49:06.071Z,54.48
2018-11-25T11:50:07.832Z,54.46
2018-11-25T11:51:09.607Z,54.09
2018-11-25T11:52:11.390Z,53.67
2018-11-25T11:53:13.181Z,54.08
2018-11-25T11:54:14.989Z,54.06
2018-11-25T11:55:16.769Z,54.72
2018-11-25T11:56:18.553Z,53.65
2018-11-25T11:57:20.301Z,53.48
2018-11-25T11:58:22.112Z,53.69
2018-11-25T11:59:24.875Z,53.82
2018-11-25T12:00:26.686Z,53.83
2018-11-25T12:01:28.447Z,53.75
2018-11-25T12:02:31.657Z,53.80
2018-11-25T12:03:32.048Z,54.78
2018-11-25T12:04:33.829Z,54.52
2018-11-25T12:05:35.599Z,54.38
2018-11-25T12:06:37.358Z,53.58
2018-11-25T12:07:39.147Z,53.54
2018-11-25T12:08:40.922Z,53.70
2018-11-25T12:09:42.721Z,53.39
2018-11-25T12:10:44.579Z,53.46
2018-11-25T12:11:46.350Z,54.11
2018-11-25T12:12:48.130Z,53.87
2018-11-25T12:13:49.897Z,53.68
2018-11-25T12:14:51.732Z,53.20
2018-11-25T12:15:53.501Z,53.74
2018-11-25T12:16:55.278Z,53.50
2018-11-25T12:17:57.043Z,53.31
2018-11-25T12:18:58.830Z,53.46
2018-11-25T12:20:00.633Z,53.28
2018-11-25T12:21:02.399Z,53.27
2018-11-25T12:22:04.169Z,53.34
2018-11-25T12:23:05.959Z,53.06
2018-11-25T12:24:07.732Z,53.34
2018-11-25T12:25:09.534Z,53.17
2018-11-25T12:26:11.304Z,52.99
2018-11-25T12:27:13.081Z,52.97
2018-11-25T12:28:14.870Z,53.29
2018-11-25T12:29:18.765Z,53.33
2018-11-25T12:30:20.796Z,53.35
2018-11-25T12:31:23.071Z,53.19
2018-11-25T12:32:24.847Z,52.67
2018-11-25T12:33:26.618Z,53.23
2018-11-25T12:34:28.386Z,52.55
2018-11-25T12:35:30.178Z,52.96
2018-11-25T12:36:31.952Z,53.05
2018-11-25T12:37:36.043Z,52.72
2018-11-25T12:38:36.457Z,52.45
2018-11-25T12:39:38.220Z,53.18
2018-11-25T12:40:40.007Z,52.88
2018-11-25T12:41:41.772Z,52.84
2018-11-25T12:42:43.530Z,52.77
2018-11-25T12:43:45.288Z,52.78
2018-11-25T12:44:47.043Z,53.07
2018-11-25T12:45:48.841Z,52.63
2018-11-25T12:46:50.932Z,52.72
2018-11-25T12:47:52.705Z,53.14
2018-11-25T12:48:54.557Z,52.87
2018-11-25T12:49:56.323Z,52.87
2018-11-25T12:50:58.100Z,52.57
2018-11-25T12:51:59.871Z,52.34
2018-11-25T12:53:01.631Z,52.94
2018-11-25T12:54:04.393Z,53.03
2018-11-25T12:55:06.158Z,52.89
2018-11-25T12:56:08.880Z,52.70
2018-11-25T12:57:10.643Z,53.18
2018-11-25T12:58:12.388Z,52.53
2018-11-25T12:59:14.189Z,53.11
2018-11-25T13:00:15.970Z,52.48
2018-11-25T13:01:17.764Z,53.09
2018-11-25T13:02:20.575Z,52.77
2018-11-25T13:03:22.360Z,53.58
2018-11-25T13:04:27.897Z,52.77
2018-11-25T13:05:25.947Z,53.07
2018-11-25T13:06:27.752Z,52.59
2018-11-25T13:07:29.527Z,53.17
2018-11-25T13:08:31.308Z,52.82
2018-11-25T13:09:33.869Z,53.20
2018-11-25T13:10:35.640Z,53.70
2018-11-25T13:11:37.440Z,53.15
2018-11-25T13:12:39.212Z,52.63
2018-11-25T13:13:40.981Z,53.06
2018-11-25T13:14:42.771Z,53.31
2018-11-25T13:15:44.547Z,52.54
2018-11-25T13:16:46.337Z,52.72
2018-11-25T13:17:48.116Z,52.61
2018-11-25T13:18:49.889Z,53.03